createdAt,value
2019-03-24T00:02:13.719Z,14.23
2019-03-24T00:04:41.975Z,12.70
2019-03-24T00:07:10.186Z,13.10
2019-03-24T00:09:38.418Z,13.55
2019-03-24T00:12:06.648Z,13.18
2019-03-24T00:14:34.874Z,13.95
2019-03-24T00:17:03.122Z,13.70
2019-03-24T00:19:31.351Z,13.05
2019-03-24T00:21:59.599Z,15.08
2019-03-24T00:24:27.856Z,14.45
2019-03-24T00:26:56.065Z,13.18
2019-03-24T00:29:24.289Z,13.80
2019-03-24T00:31:52.542Z,13.22
2019-03-24T00:34:20.757Z,14.43
2019-03-24T00:36:49.004Z,14.53
2019-03-24T00:39:17.221Z,14.23
2019-03-24T00:41:45.449Z,15.00
2019-03-24T00:44:13.664Z,13.80
2019-03-24T00:46:41.923Z,13.78
2019-03-24T00:49:10.163Z,13.38
2019-03-24T00:51:38.369Z,13.85
2019-03-24T00:54:06.617Z,14.35
2019-03-24T00:56:34.863Z,13.53
2019-03-24T00:59:03.085Z,13.60
2019-03-24T01:01:31.344Z,13.10
2019-03-24T01:03:59.580Z,13.68
2019-03-24T01:06:27.846Z,15.23
2019-03-24T01:08:56.096Z,13.78
2019-03-24T01:11:24.332Z,14.45
2019-03-24T01:13:52.611Z,14.28
2019-03-24T01:16:20.889Z,13.20
2019-03-24T01:18:49.136Z,14.40
2019-03-24T01:21:17.358Z,14.45
2019-03-24T01:23:45.648Z,15.03
2019-03-24T01:26:13.870Z,14.47
2019-03-24T01:28:42.093Z,14.07
2019-03-24T01:31:10.789Z,13.75
2019-03-24T01:33:39.006Z,15.10
2019-03-24T01:36:07.230Z,13.25
2019-03-24T01:38:35.444Z,13.95
2019-03-24T01:41:03.741Z,14.45
2019-03-24T01:43:31.947Z,14.30
2019-03-24T01:46:00.207Z,14.68
2019-03-24T01:48:28.410Z,12.60
2019-03-24T01:50:56.650Z,13.95
2019-03-24T01:53:24.866Z,14.30
2019-03-24T01:55:53.080Z,13.95
2019-03-24T01:58:21.335Z,13.95
2019-03-24T02:00:49.541Z,14.65
2019-03-24T02:03:17.763Z,14.53
2019-03-24T02:05:46.000Z,14.78
2019-03-24T02:08:14.212Z,14.40
2019-03-24T02:10:42.439Z,15.28
2019-03-24T02:13:10.695Z,15.70
2019-03-24T02:15:38.919Z,15.48
2019-03-24T02:18:07.173Z,13.40
2019-03-24T02:20:35.449Z,14.40
2019-03-24T02:23:03.706Z,16.40
2019-03-24T02:25:32.003Z,14.47
2019-03-24T02:28:00.579Z,15.53
2019-03-24T02:30:28.804Z,14.00
2019-03-24T02:32:57.552Z,14.25
2019-03-24T02:35:25.770Z,16.37
2019-03-24T02:37:54.016Z,14.95
2019-03-24T02:40:22.282Z,15.20
2019-03-24T02:42:50.492Z,15.85
2019-03-24T02:45:18.747Z,16.17
2019-03-24T02:47:46.960Z,14.07
2019-03-24T02:50:15.178Z,15.20
2019-03-24T02:52:43.403Z,14.95
2019-03-24T02:55:11.684Z,15.15
2019-03-24T02:57:39.894Z,14.47
2019-03-24T03:00:08.662Z,14.05
2019-03-24T03:02:36.875Z,13.60
2019-03-24T03:05:07.431Z,15.98
2019-03-24T03:07:35.680Z,13.60
2019-03-24T03:10:06.880Z,13.95
2019-03-24T03:12:35.136Z,13.53
2019-03-24T03:15:04.993Z,14.13
2019-03-24T03:17:33.209Z,13.40
2019-03-24T03:20:01.886Z,15.00
2019-03-24T03:22:30.129Z,13.70
2019-03-24T03:24:58.386Z,13.30
2019-03-24T03:27:26.659Z,14.58
2019-03-24T03:29:54.867Z,16.77
2019-03-24T03:32:23.083Z,14.95
2019-03-24T03:34:51.815Z,15.80
2019-03-24T03:37:20.002Z,15.60
2019-03-24T03:39:48.232Z,15.32
2019-03-24T03:42:16.520Z,15.20
2019-03-24T03:44:44.768Z,17.65
2019-03-24T03:47:12.985Z,16.32
2019-03-24T03:49:41.202Z,15.70
2019-03-24T03:52:09.457Z,14.58
2019-03-24T03:54:37.665Z,13.90
2019-03-24T03:57:05.893Z,13.53
2019-03-24T03:59:35.627Z,14.73
2019-03-24T04:02:03.845Z,13.85
2019-03-24T04:04:32.062Z,14.93
2019-03-24T04:07:00.282Z,14.53
2019-03-24T04:09:28.514Z,14.98
2019-03-24T04:11:56.730Z,16.35
2019-03-24T04:14:24.977Z,15.35
2019-03-24T04:17:06.365Z,14.18
2019-03-24T04:19:23.179Z,14.10
2019-03-24T04:21:52.950Z,14.35
2019-03-24T04:24:21.216Z,16.20
2019-03-24T04:26:49.440Z,15.32
2019-03-24T04:29:17.662Z,15.40
2019-03-24T04:31:45.886Z,15.03
2019-03-24T04:34:14.157Z,15.65
2019-03-24T04:36:42.406Z,15.23
2019-03-24T04:39:10.693Z,15.50
2019-03-24T04:41:38.898Z,13.95
2019-03-24T04:44:07.123Z,14.53
2019-03-24T04:46:35.371Z,17.65
2019-03-24T04:49:03.637Z,15.00
2019-03-24T04:51:31.889Z,16.70
2019-03-24T04:54:00.100Z,16.40
2019-03-24T04:56:28.313Z,16.70
2019-03-24T04:58:56.544Z,16.97
2019-03-24T05:01:25.412Z,16.80
2019-03-24T05:03:53.618Z,17.50
2019-03-24T05:06:22.190Z,17.62
2019-03-24T05:08:50.871Z,15.83
2019-03-24T05:11:19.086Z,13.08
2019-03-24T05:13:47.313Z,14.23
2019-03-24T05:16:15.529Z,14.20
2019-03-24T05:18:43.785Z,15.00
2019-03-24T05:21:12.022Z,14.40
2019-03-24T05:23:40.279Z,14.70
2019-03-24T05:26:08.492Z,15.58
2019-03-24T05:28:36.710Z,14.40
2019-03-24T05:31:04.940Z,17.30
2019-03-24T05:33:35.150Z,16.37
2019-03-24T05:36:03.373Z,16.65
2019-03-24T05:38:31.629Z,14.93
2019-03-24T05:41:00.310Z,16.48
2019-03-24T05:43:28.530Z,14.83
2019-03-24T05:45:56.759Z,15.35
2019-03-24T05:48:24.974Z,14.85
2019-03-24T05:50:53.189Z,15.78
2019-03-24T05:53:21.411Z,13.65
2019-03-24T05:55:49.616Z,12.50
2019-03-24T05:58:18.738Z,13.03
2019-03-24T06:00:47.025Z,13.40
2019-03-24T06:03:15.234Z,13.03
2019-03-24T06:05:43.464Z,13.22
2019-03-24T06:08:12.387Z,14.80
2019-03-24T06:10:40.634Z,14.00
2019-03-24T06:13:08.841Z,14.25
2019-03-24T06:15:37.474Z,14.35
2019-03-24T06:18:05.695Z,14.35
2019-03-24T06:20:33.926Z,14.25
2019-03-24T06:23:02.145Z,14.03
2019-03-24T06:25:30.408Z,13.72
2019-03-24T06:27:58.651Z,14.25
2019-03-24T06:30:26.864Z,15.70
2019-03-24T06:32:55.092Z,14.30
2019-03-24T06:35:23.339Z,12.90
2019-03-24T06:37:53.508Z,13.25
2019-03-24T06:40:21.738Z,13.75
2019-03-24T06:42:50.430Z,14.30
2019-03-24T06:45:27.968Z,12.68
2019-03-24T06:47:57.589Z,15.48
2019-03-24T06:50:18.582Z,13.93
2019-03-24T06:52:46.815Z,13.68
2019-03-24T06:55:15.071Z,13.35
2019-03-24T06:57:43.281Z,21.17
2019-03-24T07:00:11.501Z,14.30
2019-03-24T07:02:39.762Z,13.03
2019-03-24T07:05:08.010Z,13.13
2019-03-24T07:07:36.226Z,13.55
2019-03-24T07:10:08.073Z,14.20
2019-03-24T07:12:36.286Z,12.82
2019-03-24T07:15:06.053Z,13.00
2019-03-24T07:17:34.309Z,13.58
2019-03-24T07:20:02.885Z,14.60
2019-03-24T07:22:31.107Z,14.28
2019-03-24T07:24:59.329Z,13.30
2019-03-24T07:27:27.571Z,13.70
2019-03-24T07:29:55.839Z,13.20
2019-03-24T07:32:24.056Z,13.78
2019-03-24T07:34:52.268Z,14.78
2019-03-24T07:37:20.529Z,16.20
2019-03-24T07:39:48.753Z,15.05
2019-03-24T07:42:16.969Z,14.90
2019-03-24T07:44:45.185Z,15.72
2019-03-24T07:47:13.547Z,15.00
2019-03-24T07:49:44.875Z,14.25
2019-03-24T07:52:13.095Z,13.98
2019-03-24T07:54:41.306Z,14.43
2019-03-24T07:57:09.546Z,16.02
2019-03-24T07:59:37.772Z,14.70
2019-03-24T08:02:07.982Z,14.23
2019-03-24T08:04:36.237Z,14.87
2019-03-24T08:07:04.754Z,15.20
2019-03-24T08:09:32.975Z,15.35
2019-03-24T08:12:01.198Z,15.83
2019-03-24T08:14:29.424Z,16.42
2019-03-24T08:16:57.669Z,17.23
2019-03-24T08:19:25.879Z,16.12
2019-03-24T08:21:54.104Z,16.15
2019-03-24T08:24:22.322Z,15.58
2019-03-24T08:26:50.549Z,15.10
2019-03-24T08:29:18.803Z,15.60
2019-03-24T08:31:47.026Z,16.45
2019-03-24T08:34:15.274Z,16.82
2019-03-24T08:36:43.545Z,15.83
2019-03-24T08:39:11.767Z,15.83
2019-03-24T08:41:39.997Z,16.25
2019-03-24T08:44:08.221Z,16.70
2019-03-24T08:46:36.457Z,16.27
2019-03-24T08:49:04.740Z,16.97
2019-03-24T08:51:32.980Z,19.92
2019-03-24T08:54:01.194Z,17.87
2019-03-24T08:56:30.065Z,18.77
2019-03-24T08:58:58.289Z,18.52
2019-03-24T09:01:26.555Z,18.35
2019-03-24T09:03:54.792Z,18.55
2019-03-24T09:06:23.058Z,18.50
2019-03-24T09:08:51.280Z,22.00
2019-03-24T09:11:30.597Z,21.30
2019-03-24T09:13:49.855Z,20.70
2019-03-24T09:16:18.093Z,22.15
2019-03-24T09:18:52.546Z,20.27
2019-03-24T09:21:16.316Z,20.92
2019-03-24T09:23:44.574Z,21.42
2019-03-24T09:26:12.796Z,21.35
2019-03-24T09:28:41.033Z,20.27
2019-03-24T09:31:09.264Z,22.77
2019-03-24T09:33:37.482Z,23.62
2019-03-24T09:36:05.700Z,25.37
2019-03-24T09:38:33.917Z,24.15
2019-03-24T09:41:02.165Z,23.83
2019-03-24T09:43:30.381Z,24.55
2019-03-24T09:45:58.648Z,24.05
2019-03-24T09:48:26.865Z,23.55
2019-03-24T09:50:55.081Z,24.63
2019-03-24T09:53:23.308Z,24.63
2019-03-24T09:55:52.530Z,24.87
2019-03-24T09:58:20.774Z,24.32
2019-03-24T10:00:49.052Z,22.98
2019-03-24T10:03:17.342Z,24.52
2019-03-24T10:05:46.488Z,23.85
2019-03-24T10:08:14.716Z,25.80
2019-03-24T10:10:42.934Z,27.32
2019-03-24T10:13:11.169Z,26.20
2019-03-24T10:15:39.390Z,25.75
2019-03-24T10:18:07.902Z,27.28
2019-03-24T10:20:36.130Z,28.32
2019-03-24T10:23:04.391Z,28.02
2019-03-24T10:25:32.610Z,27.13
2019-03-24T10:28:02.485Z,29.90
2019-03-24T10:30:30.717Z,29.07
2019-03-24T10:32:58.947Z,29.82
2019-03-24T10:35:29.190Z,31.15
2019-03-24T10:37:59.566Z,31.87
2019-03-24T10:40:28.848Z,30.37
2019-03-24T10:42:57.709Z,30.52
2019-03-24T10:45:26.594Z,31.12
2019-03-24T10:47:55.259Z,31.60
2019-03-24T10:50:26.065Z,31.85
2019-03-24T10:52:54.292Z,28.57
2019-03-24T10:55:22.501Z,28.70
2019-03-24T10:57:50.733Z,28.52
2019-03-24T11:00:22.204Z,30.70
2019-03-24T11:02:50.487Z,31.05
2019-03-24T11:05:18.720Z,26.82
2019-03-24T11:07:46.958Z,31.48
2019-03-24T11:10:15.184Z,34.27
2019-03-24T11:12:43.785Z,31.25
2019-03-24T11:15:12.003Z,32.55
2019-03-24T11:17:40.392Z,32.95
2019-03-24T11:20:08.692Z,32.78
2019-03-24T11:22:36.924Z,32.83
2019-03-24T11:25:07.486Z,30.43
2019-03-24T11:27:35.744Z,30.50
2019-03-24T11:30:10.912Z,30.55
2019-03-24T11:32:39.435Z,32.60
2019-03-24T11:35:07.642Z,31.60
2019-03-24T11:37:35.896Z,32.98
2019-03-24T11:40:06.167Z,31.57
2019-03-24T11:42:34.396Z,32.95
2019-03-24T11:45:03.051Z,31.95
2019-03-24T11:47:31.272Z,33.00
2019-03-24T11:49:59.497Z,31.73
2019-03-24T11:52:27.733Z,32.45
2019-03-24T11:54:56.009Z,34.75
2019-03-24T11:57:24.238Z,32.30
2019-03-24T11:59:52.512Z,32.70
2019-03-24T12:02:20.718Z,31.12
2019-03-24T12:04:49.034Z,31.70
2019-03-24T12:07:17.255Z,31.70
2019-03-24T12:09:45.518Z,32.70
2019-03-24T12:12:13.747Z,34.10
2019-03-24T12:14:42.081Z,32.28
2019-03-24T12:17:10.308Z,31.65
2019-03-24T12:19:38.538Z,32.80
2019-03-24T12:22:06.761Z,34.90
2019-03-24T12:24:34.980Z,32.13
2019-03-24T12:27:03.275Z,32.50
2019-03-24T12:29:31.528Z,35.52
2019-03-24T12:31:59.754Z,35.25
2019-03-24T12:34:27.991Z,36.20
2019-03-24T12:36:56.211Z,34.90
2019-03-24T12:39:24.477Z,33.92
2019-03-24T12:41:52.688Z,32.93
2019-03-24T12:44:20.946Z,33.73
2019-03-24T12:46:49.191Z,33.15
2019-03-24T12:49:17.408Z,33.15
2019-03-24T12:51:45.638Z,31.60
2019-03-24T12:54:13.866Z,35.45
2019-03-24T12:56:42.097Z,31.70
2019-03-24T12:59:10.318Z,33.80
2019-03-24T13:01:38.548Z,33.08
2019-03-24T13:04:06.769Z,34.03
2019-03-24T13:06:34.997Z,31.52
2019-03-24T13:09:04.568Z,32.98
2019-03-24T13:11:32.798Z,32.15
2019-03-24T13:14:01.032Z,31.42
2019-03-24T13:16:29.261Z,31.45
2019-03-24T13:18:57.475Z,30.05
2019-03-24T13:21:25.748Z,31.52
2019-03-24T13:23:54.057Z,33.02
2019-03-24T13:26:22.278Z,31.20
2019-03-24T13:28:50.895Z,33.78
2019-03-24T13:31:19.119Z,30.30
2019-03-24T13:33:47.362Z,32.03
2019-03-24T13:36:15.696Z,32.90
2019-03-24T13:38:43.929Z,31.40
2019-03-24T13:41:12.608Z,30.35
2019-03-24T13:43:40.824Z,29.80
2019-03-24T13:46:09.090Z,32.08
2019-03-24T13:48:37.398Z,30.17
2019-03-24T13:51:05.661Z,29.15
2019-03-24T13:53:33.887Z,30.45
2019-03-24T13:56:02.227Z,28.73
2019-03-24T13:58:30.442Z,30.55
2019-03-24T14:00:58.666Z,31.97
2019-03-24T14:03:26.898Z,31.35
2019-03-24T14:05:55.152Z,31.57
2019-03-24T14:08:23.370Z,32.03
2019-03-24T14:10:51.686Z,32.75
2019-03-24T14:13:19.933Z,29.30
2019-03-24T14:15:48.148Z,29.60
2019-03-24T14:18:16.420Z,27.45
2019-03-24T14:20:44.638Z,29.57
2019-03-24T14:23:13.131Z,29.40
2019-03-24T14:25:41.617Z,29.42
2019-03-24T14:28:09.872Z,28.77
2019-03-24T14:30:42.829Z,28.57
2019-03-24T14:33:11.053Z,30.30
2019-03-24T14:35:39.343Z,29.92
2019-03-24T14:38:07.638Z,29.77
2019-03-24T14:40:35.865Z,29.23
2019-03-24T14:43:05.030Z,29.18
2019-03-24T14:45:33.302Z,27.95
2019-03-24T14:48:01.634Z,27.25
2019-03-24T14:50:29.915Z,28.50
2019-03-24T14:52:58.179Z,27.90
2019-03-24T14:55:26.381Z,28.45
2019-03-24T14:57:55.770Z,28.60
2019-03-24T15:00:38.181Z,29.00
2019-03-24T15:03:06.401Z,29.82
2019-03-24T15:05:34.614Z,29.60
2019-03-24T15:08:03.417Z,28.95
2019-03-24T15:10:31.635Z,26.17
2019-03-24T15:12:59.901Z,28.52
2019-03-24T15:15:28.120Z,28.20
2019-03-24T15:17:56.342Z,28.47
2019-03-24T15:20:24.616Z,27.35
2019-03-24T15:22:52.862Z,28.85
2019-03-24T15:25:34.462Z,28.00
2019-03-24T15:28:03.291Z,30.60
2019-03-24T15:30:31.539Z,29.70
2019-03-24T15:32:59.787Z,27.48
2019-03-24T15:35:28.001Z,27.67
2019-03-24T15:38:07.754Z,27.77
2019-03-24T15:40:26.180Z,27.22
2019-03-24T15:42:54.396Z,26.77
2019-03-24T15:45:22.608Z,25.75
2019-03-24T15:47:50.849Z,27.65
2019-03-24T15:50:19.068Z,27.27
2019-03-24T15:52:47.357Z,26.48
2019-03-24T15:55:15.607Z,26.82
2019-03-24T15:57:43.902Z,26.81
2019-03-24T16:00:12.234Z,25.92
2019-03-24T16:02:42.466Z,26.45
2019-03-24T16:05:11.024Z,25.43
2019-03-24T16:07:41.640Z,27.48
2019-03-24T16:10:10.822Z,26.77
2019-03-24T16:12:39.349Z,25.77
2019-03-24T16:15:07.929Z,25.70
2019-03-24T16:17:37.243Z,26.50
2019-03-24T16:20:07.204Z,25.80
2019-03-24T16:22:35.626Z,26.77
2019-03-24T16:25:05.390Z,25.02
2019-03-24T16:27:35.099Z,25.55
2019-03-24T16:30:05.150Z,25.68
2019-03-24T16:32:33.361Z,25.62
2019-03-24T16:35:01.589Z,24.63
2019-03-24T16:37:30.398Z,26.00
2019-03-24T16:39:58.823Z,24.47
2019-03-24T16:42:27.058Z,25.40
2019-03-24T16:44:55.343Z,25.05
2019-03-24T16:47:23.771Z,25.55
2019-03-24T16:49:52.115Z,25.32
2019-03-24T16:52:20.337Z,24.57
2019-03-24T16:54:48.575Z,25.80
2019-03-24T16:57:16.806Z,25.05
2019-03-24T16:59:45.778Z,24.67
2019-03-24T17:02:14.770Z,24.37
2019-03-24T17:04:43.138Z,25.05
2019-03-24T17:07:11.685Z,26.17
2019-03-24T17:09:40.085Z,25.92
2019-03-24T17:12:08.703Z,24.77
2019-03-24T17:14:37.094Z,26.50
2019-03-24T17:17:05.715Z,27.27
2019-03-24T17:19:33.973Z,29.50
2019-03-24T17:22:02.992Z,30.12
2019-03-24T17:24:34.431Z,28.67
2019-03-24T17:27:02.645Z,29.77
2019-03-24T17:29:30.914Z,29.82
2019-03-24T17:31:59.145Z,28.07
2019-03-24T17:34:27.405Z,29.37
2019-03-24T17:36:57.670Z,30.23
2019-03-24T17:39:25.964Z,31.25
2019-03-24T17:41:54.207Z,30.62
2019-03-24T17:44:22.510Z,30.45
2019-03-24T17:46:51.091Z,31.73
2019-03-24T17:49:20.343Z,29.50
2019-03-24T17:52:00.423Z,31.55
2019-03-24T17:54:23.083Z,32.35
2019-03-24T17:56:52.930Z,30.08
2019-03-24T17:59:21.171Z,30.35
2019-03-24T18:01:49.499Z,31.73
2019-03-24T18:04:24.641Z,31.85
2019-03-24T18:06:47.681Z,33.10
2019-03-24T18:09:15.921Z,32.55
2019-03-24T18:11:44.146Z,33.90
2019-03-24T18:14:14.985Z,34.23
2019-03-24T18:16:43.346Z,36.23
2019-03-24T18:19:11.582Z,34.75
2019-03-24T18:21:39.857Z,37.63
2019-03-24T18:24:08.065Z,35.52
2019-03-24T18:26:36.330Z,33.67
2019-03-24T18:29:05.221Z,37.88
2019-03-24T18:31:33.476Z,36.10
2019-03-24T18:34:01.708Z,36.83
2019-03-24T18:36:29.949Z,38.40
2019-03-24T18:39:10.960Z,36.70
2019-03-24T18:41:39.735Z,36.73
2019-03-24T18:44:07.945Z,38.02
2019-03-24T18:46:37.179Z,37.67
2019-03-24T18:49:05.396Z,36.73
2019-03-24T18:51:33.630Z,37.63
2019-03-24T18:54:03.788Z,38.42
2019-03-24T18:56:32.046Z,37.58
2019-03-24T18:59:00.301Z,39.33
2019-03-24T19:01:28.518Z,39.73
2019-03-24T19:03:56.747Z,40.35
2019-03-24T19:06:26.956Z,40.73
2019-03-24T19:08:55.174Z,37.48
2019-03-24T19:11:23.490Z,38.02
2019-03-24T19:13:51.791Z,36.68
2019-03-24T19:16:20.018Z,36.48
2019-03-24T19:18:48.275Z,36.98
2019-03-24T19:21:16.576Z,35.75
2019-03-24T19:23:44.783Z,36.30
2019-03-24T19:26:13.104Z,36.70
2019-03-24T19:28:41.332Z,36.10
2019-03-24T19:31:09.611Z,34.58
2019-03-24T19:33:38.190Z,37.35
2019-03-24T19:36:06.451Z,36.75
2019-03-24T19:38:34.717Z,35.00
2019-03-24T19:41:02.945Z,35.65
2019-03-24T19:43:31.316Z,34.70
2019-03-24T19:45:59.574Z,33.15
2019-03-24T19:48:27.798Z,34.60
2019-03-24T19:50:56.103Z,34.13
2019-03-24T19:53:24.401Z,35.85
2019-03-24T19:55:52.621Z,35.30
2019-03-24T19:58:20.860Z,35.20
2019-03-24T20:00:49.097Z,35.45
2019-03-24T20:03:17.321Z,33.40
2019-03-24T20:05:45.544Z,34.67
2019-03-24T20:08:18.104Z,35.95
2019-03-24T20:10:47.922Z,33.48
2019-03-24T20:13:19.366Z,36.45
2019-03-24T20:15:47.670Z,35.68
2019-03-24T20:18:15.918Z,35.52
2019-03-24T20:20:44.143Z,36.93
2019-03-24T20:23:13.009Z,36.83
2019-03-24T20:25:41.292Z,38.23
2019-03-24T20:28:10.556Z,35.03
2019-03-24T20:30:38.809Z,37.40
2019-03-24T20:33:07.067Z,36.55
2019-03-24T20:35:35.287Z,38.70
2019-03-24T20:38:03.510Z,36.45
2019-03-24T20:40:33.407Z,40.12
2019-03-24T20:43:01.642Z,37.33
2019-03-24T20:45:29.869Z,38.73
2019-03-24T20:47:58.098Z,36.30
2019-03-24T20:50:26.319Z,37.85
2019-03-24T20:53:03.643Z,36.33
2019-03-24T20:55:24.542Z,37.95
2019-03-24T20:57:53.789Z,38.25
2019-03-24T21:00:30.396Z,39.65
2019-03-24T21:02:58.634Z,37.80
2019-03-24T21:05:26.895Z,39.13
2019-03-24T21:07:55.360Z,34.90
2019-03-24T21:10:41.775Z,38.38
2019-03-24T21:13:09.996Z,37.35
2019-03-24T21:15:38.300Z,37.58
2019-03-24T21:18:06.618Z,38.73
2019-03-24T21:20:35.761Z,38.78
2019-03-24T21:23:04.053Z,38.10
2019-03-24T21:25:32.340Z,38.88
2019-03-24T21:28:00.740Z,40.38
2019-03-24T21:30:39.107Z,39.50
2019-03-24T21:33:07.370Z,40.12
2019-03-24T21:35:35.570Z,38.73
2019-03-24T21:38:06.199Z,39.04
2019-03-24T21:40:34.431Z,39.80
2019-03-24T21:43:02.677Z,38.92
2019-03-24T21:45:30.902Z,41.25
2019-03-24T21:48:02.615Z,41.70
2019-03-24T21:50:30.889Z,40.40
2019-03-24T21:53:40.636Z,36.50
2019-03-24T21:56:07.097Z,38.38
2019-03-24T21:58:37.437Z,38.40
2019-03-24T22:01:05.837Z,39.03
2019-03-24T22:03:34.079Z,39.13
2019-03-24T22:06:02.281Z,37.73
2019-03-24T22:08:30.543Z,36.20
2019-03-24T22:10:58.771Z,37.23
2019-03-24T22:13:27.057Z,36.10
2019-03-24T22:15:55.310Z,40.08
2019-03-24T22:18:23.573Z,38.17
2019-03-24T22:20:51.805Z,38.73
2019-03-24T22:23:20.031Z,41.48
2019-03-24T22:25:48.435Z,38.83
2019-03-24T22:28:16.726Z,37.67
2019-03-24T22:30:44.957Z,36.83
2019-03-24T22:33:13.196Z,35.78
2019-03-24T22:35:41.931Z,38.75
2019-03-24T22:38:10.148Z,39.58
2019-03-24T22:40:38.410Z,38.25
2019-03-24T22:43:06.636Z,42.23
2019-03-24T22:45:34.867Z,39.73
2019-03-24T22:48:03.072Z,39.23
2019-03-24T22:50:31.303Z,39.40
2019-03-24T22:52:59.523Z,38.92
2019-03-24T22:55:27.757Z,37.17
2019-03-24T22:57:57.999Z,38.65
2019-03-24T23:00:43.084Z,39.70
2019-03-24T23:03:12.762Z,39.38
2019-03-24T23:05:40.982Z,38.63
2019-03-24T23:08:09.248Z,40.33
2019-03-24T23:10:37.486Z,39.15
2019-03-24T23:13:05.718Z,41.40
2019-03-24T23:15:33.928Z,39.33
2019-03-24T23:18:02.151Z,37.53
2019-03-24T23:20:31.833Z,38.75
2019-03-24T23:23:00.054Z,38.13
2019-03-24T23:25:28.317Z,39.10
2019-03-24T23:27:56.561Z,39.65
2019-03-24T23:30:24.821Z,37.63
2019-03-24T23:32:53.035Z,37.48
2019-03-24T23:35:21.295Z,39.10
2019-03-24T23:37:49.873Z,37.78
2019-03-24T23:40:18.132Z,37.60
2019-03-24T23:42:46.352Z,36.28
2019-03-24T23:45:15.649Z,36.35
2019-03-24T23:47:43.895Z,38.73
2019-03-24T23:50:12.159Z,36.63
2019-03-24T23:52:40.371Z,33.63
2019-03-24T23:55:08.681Z,37.13
2019-03-24T23:57:36.898Z,37.70
